sensor_id;sensor_type;location;lat;lon;timestamp;pressure;altitude;pressure_sealevel;temperature;humidity
65997;BME280;52765;52.258;21.052;2023-06-22T00:00:49;100660.88;;;22.10;100.00
65997;BME280;52765;52.258;21.052;2023-06-22T00:03:16;100655.00;;;22.06;100.00
65997;BME280;52765;52.258;21.052;2023-06-22T00:05:42;100659.91;;;22.04;100.00
65997;BME280;52765;52.258;21.052;2023-06-22T00:08:08;100664.56;;;22.04;100.00
65997;BME280;52765;52.258;21.052;2023-06-22T00:10:33;100670.25;;;22.02;100.00
65997;BME280;52765;52.258;21.052;2023-06-22T00:12:58;100663.31;;;21.99;100.00
65997;BME280;52765;52.258;21.052;2023-06-22T00:15:24;100652.44;;;21.86;100.00
65997;BME280;52765;52.258;21.052;2023-06-22T00:17:51;100670.94;;;21.97;100.00
65997;BME280;52765;52.258;21.052;2023-06-22T00:20:16;100671.16;;;21.96;100.00
65997;BME280;52765;52.258;21.052;2023-06-22T00:22:43;100672.44;;;21.93;100.00
65997;BME280;52765;52.258;21.052;2023-06-22T00:25:09;100665.50;;;21.91;100.00
65997;BME280;52765;52.258;21.052;2023-06-22T00:32:29;100669.28;;;21.90;100.00
65997;BME280;52765;52.258;21.052;2023-06-22T00:34:54;100663.81;;;21.90;100.00
65997;BME280;52765;52.258;21.052;2023-06-22T00:37:20;100651.25;;;21.82;100.00
65997;BME280;52765;52.258;21.052;2023-06-22T00:39:47;100666.56;;;21.90;100.00
65997;BME280;52765;52.258;21.052;2023-06-22T00:42:13;100672.25;;;21.88;100.00
65997;BME280;52765;52.258;21.052;2023-06-22T00:44:41;100665.13;;;21.87;100.00
65997;BME280;52765;52.258;21.052;2023-06-22T00:47:07;100671.22;;;21.89;100.00
65997;BME280;52765;52.258;21.052;2023-06-22T00:51:58;100661.28;;;21.88;100.00
65997;BME280;52765;52.258;21.052;2023-06-22T00:54:27;100651.25;;;21.82;100.00
65997;BME280;52765;52.258;21.052;2023-06-22T00:56:54;100667.03;;;21.87;100.00
65997;BME280;52765;52.258;21.052;2023-06-22T00:59:21;100665.72;;;21.89;100.00
65997;BME280;52765;52.258;21.052;2023-06-22T01:01:47;100657.09;;;21.86;100.00
65997;BME280;52765;52.258;21.052;2023-06-22T01:04:13;100649.94;;;21.85;100.00
65997;BME280;52765;52.258;21.052;2023-06-22T01:06:45;100646.97;;;21.86;100.00
65997;BME280;52765;52.258;21.052;2023-06-22T01:09:22;100649.09;;;21.84;100.00
65997;BME280;52765;52.258;21.052;2023-06-22T01:11:54;100641.53;;;21.79;100.00
65997;BME280;52765;52.258;21.052;2023-06-22T01:14:35;100636.50;;;21.76;100.00
65997;BME280;52765;52.258;21.052;2023-06-22T01:17:05;100639.47;;;21.75;100.00
65997;BME280;52765;52.258;21.052;2023-06-22T01:19:44;100629.34;;;21.75;100.00
65997;BME280;52765;52.258;21.052;2023-06-22T01:22:15;100634.47;;;21.72;100.00
65997;BME280;52765;52.258;21.052;2023-06-22T01:24:55;100628.50;;;21.75;100.00
65997;BME280;52765;52.258;21.052;2023-06-22T01:27:36;100629.97;;;21.77;100.00
65997;BME280;52765;52.258;21.052;2023-06-22T01:30:11;100626.41;;;21.77;100.00
65997;BME280;52765;52.258;21.052;2023-06-22T01:32:40;100621.75;;;21.77;100.00
65997;BME280;52765;52.258;21.052;2023-06-22T01:35:08;100621.28;;;21.80;100.00
65997;BME280;52765;52.258;21.052;2023-06-22T01:37:37;100616.66;;;21.81;100.00
65997;BME280;52765;52.258;21.052;2023-06-22T01:40:04;100612.25;;;21.80;100.00
65997;BME280;52765;52.258;21.052;2023-06-22T01:42:32;100612.47;;;21.78;100.00
65997;BME280;52765;52.258;21.052;2023-06-22T01:44:58;100612.25;;;21.80;100.00
65997;BME280;52765;52.258;21.052;2023-06-22T01:47:24;100612.25;;;21.80;100.00
65997;BME280;52765;52.258;21.052;2023-06-22T01:49:51;100617.09;;;21.78;100.00
65997;BME280;52765;52.258;21.052;2023-06-22T01:52:19;100621.97;;;21.76;100.00
65997;BME280;52765;52.258;21.052;2023-06-22T01:54:46;100623.88;;;21.75;100.00
65997;BME280;52765;52.258;21.052;2023-06-22T01:57:12;100627.66;;;21.74;100.00
65997;BME280;52765;52.258;21.052;2023-06-22T02:02:15;100626.41;;;21.77;100.00
65997;BME280;52765;52.258;21.052;2023-06-22T02:04:46;100625.09;;;21.79;100.00
65997;BME280;52765;52.258;21.052;2023-06-22T02:07:14;100632.88;;;21.83;100.00
65997;BME280;52765;52.258;21.052;2023-06-22T02:09:44;100633.47;;;21.85;100.00
65997;BME280;52765;52.258;21.052;2023-06-22T02:12:12;100644.91;;;21.81;100.00
65997;BME280;52765;52.258;21.052;2023-06-22T02:14:39;100665.84;;;21.76;100.00
65997;BME280;52765;52.258;21.052;2023-06-22T02:17:05;100659.97;;;21.72;100.00
65997;BME280;52765;52.258;21.052;2023-06-22T02:19:37;100660.56;;;21.74;100.00
65997;BME280;52765;52.258;21.052;2023-06-22T02:22:04;100664.19;;;21.68;100.00
65997;BME280;52765;52.258;21.052;2023-06-22T02:24:30;100674.09;;;21.69;100.00
65997;BME280;52765;52.258;21.052;2023-06-22T02:27:01;100676.03;;;21.69;100.00
65997;BME280;52765;52.258;21.052;2023-06-22T02:29:27;100674.38;;;21.61;100.00
65997;BME280;52765;52.258;21.052;2023-06-22T02:31:53;100673.34;;;21.62;100.00
65997;BME280;52765;52.258;21.052;2023-06-22T02:34:19;100679.47;;;21.57;100.00
65997;BME280;52765;52.258;21.052;2023-06-22T02:36:45;100688.53;;;21.58;100.00
65997;BME280;52765;52.258;21.052;2023-06-22T02:39:22;100688.91;;;21.61;100.00
65997;BME280;52765;52.258;21.052;2023-06-22T02:41:52;100699.88;;;21.61;100.00
65997;BME280;52765;52.258;21.052;2023-06-22T02:44:18;100695.69;;;21.59;100.00
65997;BME280;52765;52.258;21.052;2023-06-22T02:46:44;100703.09;;;21.58;100.00
65997;BME280;52765;52.258;21.052;2023-06-22T02:49:10;100705.03;;;21.44;100.00
65997;BME280;52765;52.258;21.052;2023-06-22T02:51:38;100709.53;;;21.32;100.00
65997;BME280;52765;52.258;21.052;2023-06-22T02:54:07;100717.00;;;21.18;100.00
65997;BME280;52765;52.258;21.052;2023-06-22T02:56:33;100721.44;;;21.06;100.00
65997;BME280;52765;52.258;21.052;2023-06-22T02:58:58;100712.69;;;20.91;100.00
65997;BME280;52765;52.258;21.052;2023-06-22T03:01:27;100719.81;;;20.92;100.00
65997;BME280;52765;52.258;21.052;2023-06-22T03:03:53;100712.94;;;20.76;100.00
65997;BME280;52765;52.258;21.052;2023-06-22T03:06:18;100717.38;;;20.70;100.00
65997;BME280;52765;52.258;21.052;2023-06-22T03:08:48;100721.38;;;20.67;100.00
65997;BME280;52765;52.258;21.052;2023-06-22T03:11:14;100706.84;;;20.60;100.00
65997;BME280;52765;52.258;21.052;2023-06-22T03:13:39;100721.38;;;20.61;100.00
65997;BME280;52765;52.258;21.052;2023-06-22T03:16:05;100727.91;;;20.66;100.00
65997;BME280;52765;52.258;21.052;2023-06-22T03:18:30;100734.66;;;20.70;100.00
65997;BME280;52765;52.258;21.052;2023-06-22T03:20:55;100742.41;;;20.80;100.00
65997;BME280;52765;52.258;21.052;2023-06-22T03:23:21;100746.59;;;20.83;100.00
65997;BME280;52765;52.258;21.052;2023-06-22T03:25:47;100735.03;;;20.74;100.00
65997;BME280;52765;52.258;21.052;2023-06-22T03:28:12;100734.00;;;20.75;100.00
65997;BME280;52765;52.258;21.052;2023-06-22T03:30:38;100733.16;;;20.75;100.00
65997;BME280;52765;52.258;21.052;2023-06-22T03:33:03;100736.09;;;20.73;100.00
65997;BME280;52765;52.258;21.052;2023-06-22T03:35:28;100738.22;;;20.71;100.00
65997;BME280;52765;52.258;21.052;2023-06-22T03:37:54;100734.22;;;20.74;100.00
65997;BME280;52765;52.258;21.052;2023-06-22T03:40:19;100732.31;;;20.74;100.00
65997;BME280;52765;52.258;21.052;2023-06-22T03:42:45;100742.41;;;20.80;100.00
65997;BME280;52765;52.258;21.052;2023-06-22T03:45:11;100742.19;;;20.88;100.00
65997;BME280;52765;52.258;21.052;2023-06-22T03:47:36;100737.75;;;20.87;100.00
65997;BME280;52765;52.258;21.052;2023-06-22T03:50:02;100758.59;;;20.88;100.00
65997;BME280;52765;52.258;21.052;2023-06-22T03:52:29;100759.44;;;20.89;100.00
65997;BME280;52765;52.258;21.052;2023-06-22T03:54:55;100766.59;;;20.90;100.00
65997;BME280;52765;52.258;21.052;2023-06-22T03:57:20;100766.81;;;20.95;100.00
65997;BME280;52765;52.258;21.052;2023-06-22T03:59:48;100764.88;;;21.02;100.00
65997;BME280;52765;52.258;21.052;2023-06-22T04:02:13;100765.28;;;21.06;100.00
65997;BME280;52765;52.258;21.052;2023-06-22T04:04:39;100773.03;;;21.16;100.00
65997;BME280;52765;52.258;21.052;2023-06-22T04:07:05;100768.81;;;21.13;100.00
65997;BME280;52765;52.258;21.052;2023-06-22T04:09:31;100761.50;;;21.07;100.00
65997;BME280;52765;52.258;21.052;2023-06-22T04:11:56;100762.50;;;21.13;100.00
65997;BME280;52765;52.258;21.052;2023-06-22T04:14:22;100769.88;;;21.19;100.00
65997;BME280;52765;52.258;21.052;2023-06-22T04:16:47;100773.41;;;21.26;100.00
65997;BME280;52765;52.258;21.052;2023-06-22T04:19:12;100780.34;;;21.35;100.00
65997;BME280;52765;52.258;21.052;2023-06-22T04:21:42;100780.56;;;21.34;100.00
65997;BME280;52765;52.258;21.052;2023-06-22T04:24:08;100775.91;;;21.34;100.00
65997;BME280;52765;52.258;21.052;2023-06-22T04:26:33;100766.84;;;21.34;100.00
65997;BME280;52765;52.258;21.052;2023-06-22T04:29:03;100776.72;;;21.41;100.00
65997;BME280;52765;52.258;21.052;2023-06-22T04:31:31;100777.78;;;21.40;100.00
65997;BME280;52765;52.258;21.052;2023-06-22T04:33:58;100790.41;;;21.41;100.00
65997;BME280;52765;52.258;21.052;2023-06-22T04:36:31;100785.44;;;21.32;100.00
65997;BME280;52765;52.258;21.052;2023-06-22T04:39:03;100797.03;;;21.27;100.00
65997;BME280;52765;52.258;21.052;2023-06-22T04:41:28;100786.47;;;21.31;100.00
65997;BME280;52765;52.258;21.052;2023-06-22T04:43:54;100785.59;;;21.37;100.00
65997;BME280;52765;52.258;21.052;2023-06-22T04:46:19;100777.13;;;21.45;100.00
65997;BME280;52765;52.258;21.052;2023-06-22T04:48:45;100784.72;;;21.43;100.00
65997;BME280;52765;52.258;21.052;2023-06-22T04:51:10;100780.72;;;21.46;100.00
65997;BME280;52765;52.258;21.052;2023-06-22T04:53:36;100785.97;;;21.54;100.00
65997;BME280;52765;52.258;21.052;2023-06-22T04:56:01;100783.25;;;21.47;100.00
65997;BME280;52765;52.258;21.052;2023-06-22T04:58:29;100782.41;;;21.40;100.00
65997;BME280;52765;52.258;21.052;2023-06-22T05:00:57;100786.47;;;21.31;100.00
65997;BME280;52765;52.258;21.052;2023-06-22T05:03:25;100781.78;;;21.38;100.00
65997;BME280;52765;52.258;21.052;2023-06-22T05:05:54;100777.34;;;21.43;100.00
65997;BME280;52765;52.258;21.052;2023-06-22T05:08:19;100780.94;;;21.51;100.00
65997;BME280;52765;52.258;21.052;2023-06-22T05:10:45;100777.75;;;21.54;100.00
65997;BME280;52765;52.258;21.052;2023-06-22T05:13:10;100784.63;;;21.63;100.00
65997;BME280;52765;52.258;21.052;2023-06-22T05:15:35;100793.50;;;21.65;100.00
65997;BME280;52765;52.258;21.052;2023-06-22T05:18:05;100781.66;;;21.71;100.00
65997;BME280;52765;52.258;21.052;2023-06-22T05:20:31;100778.69;;;21.73;100.00
65997;BME280;52765;52.258;21.052;2023-06-22T05:22:56;100780.19;;;21.69;100.00
65997;BME280;52765;52.258;21.052;2023-06-22T05:25:22;100787.53;;;21.75;100.00
65997;BME280;52765;52.258;21.052;2023-06-22T05:27:47;100780.25;;;21.62;100.00
65997;BME280;52765;52.258;21.052;2023-06-22T05:30:13;100786.13;;;21.66;100.00
65997;BME280;52765;52.258;21.052;2023-06-22T05:32:39;100794.31;;;21.72;100.00
65997;BME280;52765;52.258;21.052;2023-06-22T05:35:04;100796.41;;;21.77;100.00
65997;BME280;52765;52.258;21.052;2023-06-22T05:37:30;100790.38;;;21.93;100.00
65997;BME280;52765;52.258;21.052;2023-06-22T05:39:55;100794.53;;;22.03;100.00
65997;BME280;52765;52.258;21.052;2023-06-22T05:42:22;100812.66;;;22.04;100.00
65997;BME280;52765;52.258;21.052;2023-06-22T05:44:48;100804.22;;;22.05;100.00
65997;BME280;52765;52.258;21.052;2023-06-22T05:47:14;100810.09;;;22.09;100.00
65997;BME280;52765;52.258;21.052;2023-06-22T05:49:39;100818.06;;;22.17;100.00
65997;BME280;52765;52.258;21.052;2023-06-22T05:52:05;100822.56;;;22.05;100.00
65997;BME280;52765;52.258;21.052;2023-06-22T05:54:30;100820.72;;;21.98;100.00
65997;BME280;52765;52.258;21.052;2023-06-22T05:56:56;100820.34;;;21.88;100.00
65997;BME280;52765;52.258;21.052;2023-06-22T05:59:22;100813.28;;;21.74;100.00
65997;BME280;52765;52.258;21.052;2023-06-22T06:01:48;100812.47;;;21.67;100.00
65997;BME280;52765;52.258;21.052;2023-06-22T06:04:17;100819.88;;;21.59;100.00
65997;BME280;52765;52.258;21.052;2023-06-22T06:06:43;100818.41;;;21.64;100.00
65997;BME280;52765;52.258;21.052;2023-06-22T06:09:08;100812.03;;;21.70;100.00
65997;BME280;52765;52.258;21.052;2023-06-22T06:11:34;100816.81;;;21.81;100.00
65997;BME280;52765;52.258;21.052;2023-06-22T06:13:59;100831.09;;;21.90;100.00
65997;BME280;52765;52.258;21.052;2023-06-22T06:16:25;100830.06;;;21.91;100.00
65997;BME280;52765;52.258;21.052;2023-06-22T06:18:50;100845.66;;;21.90;100.00
65997;BME280;52765;52.258;21.052;2023-06-22T06:21:16;100841.06;;;21.84;100.00
65997;BME280;52765;52.258;21.052;2023-06-22T06:23:42;100836.44;;;21.78;100.00
65997;BME280;52765;52.258;21.052;2023-06-22T06:26:08;100834.09;;;21.81;100.00
65997;BME280;52765;52.258;21.052;2023-06-22T06:28:34;100838.31;;;21.84;100.00
65997;BME280;52765;52.258;21.052;2023-06-22T06:31:00;100834.69;;;21.90;100.00
65997;BME280;52765;52.258;21.052;2023-06-22T06:33:26;100838.19;;;22.04;100.00
65997;BME280;52765;52.258;21.052;2023-06-22T06:35:54;100842.75;;;22.17;100.00
65997;BME280;52765;52.258;21.052;2023-06-22T06:38:21;100837.28;;;22.17;100.00
65997;BME280;52765;52.258;21.052;2023-06-22T06:40:46;100834.03;;;22.27;100.00
65997;BME280;52765;52.258;21.052;2023-06-22T06:43:14;100837.53;;;22.41;100.00
65997;BME280;52765;52.258;21.052;2023-06-22T06:45:39;100845.06;;;22.52;100.00
65997;BME280;52765;52.258;21.052;2023-06-22T06:48:05;100840.06;;;22.67;100.00
65997;BME280;52765;52.258;21.052;2023-06-22T06:50:30;100838.97;;;22.94;100.00
65997;BME280;52765;52.258;21.052;2023-06-22T06:52:56;100845.50;;;23.18;100.00
65997;BME280;52765;52.258;21.052;2023-06-22T06:55:24;100832.91;;;23.28;99.86
65997;BME280;52765;52.258;21.052;2023-06-22T06:57:50;100835.28;;;23.43;99.61
65997;BME280;52765;52.258;21.052;2023-06-22T07:00:18;100835.19;;;23.50;97.94
65997;BME280;52765;52.258;21.052;2023-06-22T07:02:44;100828.13;;;23.54;97.74
65997;BME280;52765;52.258;21.052;2023-06-22T07:05:11;100822.66;;;23.36;97.73
65997;BME280;52765;52.258;21.052;2023-06-22T07:07:37;100824.88;;;23.45;96.66
65997;BME280;52765;52.258;21.052;2023-06-22T07:10:04;100818.16;;;23.60;95.90
65997;BME280;52765;52.258;21.052;2023-06-22T07:12:30;100832.53;;;23.74;95.07
65997;BME280;52765;52.258;21.052;2023-06-22T07:15:05;100833.00;;;23.89;93.94
65997;BME280;52765;52.258;21.052;2023-06-22T07:17:33;100825.09;;;23.93;94.57
65997;BME280;52765;52.258;21.052;2023-06-22T07:19:59;100835.97;;;23.88;94.30
65997;BME280;52765;52.258;21.052;2023-06-22T07:22:24;100841.84;;;23.73;94.97
65997;BME280;52765;52.258;21.052;2023-06-22T07:24:50;100843.78;;;23.72;94.42
65997;BME280;52765;52.258;21.052;2023-06-22T07:27:15;100849.28;;;23.72;95.17
65997;BME280;52765;52.258;21.052;2023-06-22T07:29:44;100851.75;;;23.62;96.01
65997;BME280;52765;52.258;21.052;2023-06-22T07:32:09;100842.72;;;23.73;96.27
65997;BME280;52765;52.258;21.052;2023-06-22T07:34:35;100845.59;;;23.78;95.88
65997;BME280;52765;52.258;21.052;2023-06-22T07:37:00;100850.31;;;23.90;95.55
65997;BME280;52765;52.258;21.052;2023-06-22T07:39:26;100850.03;;;24.10;94.04
65997;BME280;52765;52.258;21.052;2023-06-22T07:41:53;100846.50;;;24.33;92.04
65997;BME280;52765;52.258;21.052;2023-06-22T07:44:19;100845.94;;;24.43;87.62
65997;BME280;52765;52.258;21.052;2023-06-22T07:46:47;100846.28;;;24.34;85.42
65997;BME280;52765;52.258;21.052;2023-06-22T07:49:17;100842.53;;;24.17;87.47
65997;BME280;52765;52.258;21.052;2023-06-22T07:51:42;100839.19;;;24.15;86.04
65997;BME280;52765;52.258;21.052;2023-06-22T07:54:09;100834.41;;;24.22;84.11
65997;BME280;52765;52.258;21.052;2023-06-22T07:56:35;100841.06;;;24.14;83.37
65997;BME280;52765;52.258;21.052;2023-06-22T07:59:01;100845.53;;;24.27;83.55
65997;BME280;52765;52.258;21.052;2023-06-22T08:01:29;100848.22;;;24.46;80.61
65997;BME280;52765;52.258;21.052;2023-06-22T08:03:54;100843.19;;;24.54;79.47
65997;BME280;52765;52.258;21.052;2023-06-22T08:06:19;100852.94;;;24.69;77.92
65997;BME280;52765;52.258;21.052;2023-06-22T08:08:45;100855.69;;;24.69;76.27
65997;BME280;52765;52.258;21.052;2023-06-22T08:11:13;100849.34;;;24.68;74.75
65997;BME280;52765;52.258;21.052;2023-06-22T08:13:38;100850.66;;;24.78;75.37
65997;BME280;52765;52.258;21.052;2023-06-22T08:16:04;100842.88;;;24.86;75.27
65997;BME280;52765;52.258;21.052;2023-06-22T08:18:32;100838.44;;;24.97;75.01
65997;BME280;52765;52.258;21.052;2023-06-22T08:20:57;100832.00;;;24.91;74.25
65997;BME280;52765;52.258;21.052;2023-06-22T08:23:23;100845.16;;;24.89;74.94
65997;BME280;52765;52.258;21.052;2023-06-22T08:25:48;100838.66;;;25.07;72.87
65997;BME280;52765;52.258;21.052;2023-06-22T08:28:15;100835.53;;;25.16;68.76
65997;BME280;52765;52.258;21.052;2023-06-22T08:30:41;100830.13;;;25.21;67.68
65997;BME280;52765;52.258;21.052;2023-06-22T08:33:06;100839.13;;;25.28;66.28
65997;BME280;52765;52.258;21.052;2023-06-22T08:35:32;100846.66;;;25.44;67.41
65997;BME280;52765;52.258;21.052;2023-06-22T08:37:57;100845.81;;;25.44;64.24
65997;BME280;52765;52.258;21.052;2023-06-22T08:40:24;100841.53;;;25.36;63.15
65997;BME280;52765;52.258;21.052;2023-06-22T08:42:50;100854.94;;;25.21;61.97
65997;BME280;52765;52.258;21.052;2023-06-22T08:45:16;100847.66;;;25.03;61.95
65997;BME280;52765;52.258;21.052;2023-06-22T08:47:44;100838.09;;;25.05;61.81
65997;BME280;52765;52.258;21.052;2023-06-22T08:50:11;100834.59;;;25.22;61.68
65997;BME280;52765;52.258;21.052;2023-06-22T08:52:37;100848.47;;;25.39;62.23
65997;BME280;52765;52.258;21.052;2023-06-22T08:55:06;100846.91;;;25.43;61.82
65997;BME280;52765;52.258;21.052;2023-06-22T08:57:31;100849.75;;;25.60;61.62
65997;BME280;52765;52.258;21.052;2023-06-22T08:59:59;100850.44;;;25.67;61.50
65997;BME280;52765;52.258;21.052;2023-06-22T09:02:26;100843.44;;;25.76;59.18
65997;BME280;52765;52.258;21.052;2023-06-22T09:04:56;100855.28;;;25.89;58.21
65997;BME280;52765;52.258;21.052;2023-06-22T09:07:22;100858.75;;;25.96;58.94
65997;BME280;52765;52.258;21.052;2023-06-22T09:09:49;100859.44;;;26.03;56.77
65997;BME280;52765;52.258;21.052;2023-06-22T09:12:14;100860.03;;;26.05;55.90
65997;BME280;52765;52.258;21.052;2023-06-22T09:14:40;100859.28;;;26.10;54.58
65997;BME280;52765;52.258;21.052;2023-06-22T09:17:05;100856.31;;;26.28;53.95
65997;BME280;52765;52.258;21.052;2023-06-22T09:19:31;100858.97;;;26.23;53.98
65997;BME280;52765;52.258;21.052;2023-06-22T09:21:56;100853.78;;;26.27;53.80
65997;BME280;52765;52.258;21.052;2023-06-22T09:24:22;100838.56;;;26.41;53.01
65997;BME280;52765;52.258;21.052;2023-06-22T09:26:47;100844.53;;;26.50;52.60
65997;BME280;52765;52.258;21.052;2023-06-22T09:29:13;100840.56;;;26.63;52.45
65997;BME280;52765;52.258;21.052;2023-06-22T09:31:38;100836.84;;;26.69;50.50
65997;BME280;52765;52.258;21.052;2023-06-22T09:34:04;100841.41;;;26.46;49.30
65997;BME280;52765;52.258;21.052;2023-06-22T09:36:29;100837.22;;;26.44;49.56
65997;BME280;52765;52.258;21.052;2023-06-22T09:38:55;100830.44;;;26.34;49.77
65997;BME280;52765;52.258;21.052;2023-06-22T09:41:23;100839.16;;;26.43;50.13
65997;BME280;52765;52.258;21.052;2023-06-22T09:43:48;100839.19;;;26.14;50.29
65997;BME280;52765;52.258;21.052;2023-06-22T09:46:16;100838.63;;;26.12;50.06
65997;BME280;52765;52.258;21.052;2023-06-22T09:48:42;100819.31;;;26.29;49.80
65997;BME280;52765;52.258;21.052;2023-06-22T09:51:08;100825.84;;;26.57;48.91
65997;BME280;52765;52.258;21.052;2023-06-22T09:53:35;100839.06;;;26.55;48.98
65997;BME280;52765;52.258;21.052;2023-06-22T09:56:01;100837.88;;;26.51;49.60
65997;BME280;52765;52.258;21.052;2023-06-22T09:58:27;100827.53;;;26.75;49.63
65997;BME280;52765;52.258;21.052;2023-06-22T10:00:53;100833.47;;;26.84;47.89
65997;BME280;52765;52.258;21.052;2023-06-22T10:03:20;100836.81;;;26.86;48.13
65997;BME280;52765;52.258;21.052;2023-06-22T10:05:45;100846.88;;;26.75;47.10
65997;BME280;52765;52.258;21.052;2023-06-22T10:08:11;100838.75;;;26.68;45.94
65997;BME280;52765;52.258;21.052;2023-06-22T10:10:37;100837.47;;;26.76;43.95
65997;BME280;52765;52.258;21.052;2023-06-22T10:13:08;100835.22;;;26.90;44.02
65997;BME280;52765;52.258;21.052;2023-06-22T10:15:36;100833.81;;;27.09;44.61
65997;BME280;52765;52.258;21.052;2023-06-22T10:18:02;100830.09;;;27.21;45.05
65997;BME280;52765;52.258;21.052;2023-06-22T10:20:28;100843.66;;;27.39;45.40
65997;BME280;52765;52.258;21.052;2023-06-22T10:22:53;100845.19;;;27.52;45.30
65997;BME280;52765;52.258;21.052;2023-06-22T10:25:19;100831.31;;;27.74;44.47
65997;BME280;52765;52.258;21.052;2023-06-22T10:27:46;100842.94;;;27.93;44.02
65997;BME280;52765;52.258;21.052;2023-06-22T10:30:13;100839.69;;;28.01;44.00
65997;BME280;52765;52.258;21.052;2023-06-22T10:32:43;100842.19;;;28.03;43.88
65997;BME280;52765;52.258;21.052;2023-06-22T10:35:09;100841.22;;;27.92;45.24
65997;BME280;52765;52.258;21.052;2023-06-22T10:37:41;100823.34;;;27.78;46.20
65997;BME280;52765;52.258;21.052;2023-06-22T10:40:08;100829.91;;;27.94;46.11
65997;BME280;52765;52.258;21.052;2023-06-22T10:42:34;100834.94;;;27.97;45.54
65997;BME280;52765;52.258;21.052;2023-06-22T10:45:00;100829.69;;;27.73;46.39
65997;BME280;52765;52.258;21.052;2023-06-22T10:47:25;100828.03;;;27.77;47.38
65997;BME280;52765;52.258;21.052;2023-06-22T10:49:51;100826.41;;;28.03;46.09
65997;BME280;52765;52.258;21.052;2023-06-22T10:52:17;100820.31;;;27.79;44.99
65997;BME280;52765;52.258;21.052;2023-06-22T10:54:42;100825.28;;;27.77;46.00
65997;BME280;52765;52.258;21.052;2023-06-22T10:57:08;100817.94;;;27.88;45.69
65997;BME280;52765;52.258;21.052;2023-06-22T10:59:33;100826.47;;;28.09;45.70
65997;BME280;52765;52.258;21.052;2023-06-22T11:01:59;100818.53;;;28.22;44.73
65997;BME280;52765;52.258;21.052;2023-06-22T11:04:24;100812.34;;;28.42;44.29
65997;BME280;52765;52.258;21.052;2023-06-22T11:06:50;100813.31;;;28.26;45.15
65997;BME280;52765;52.258;21.052;2023-06-22T11:09:16;100809.94;;;28.51;43.92
65997;BME280;52765;52.258;21.052;2023-06-22T11:11:49;100810.66;;;28.74;41.81
65997;BME280;52765;52.258;21.052;2023-06-22T11:14:15;100808.59;;;28.96;42.02
65997;BME280;52765;52.258;21.052;2023-06-22T11:16:41;100802.88;;;28.71;42.22
65997;BME280;52765;52.258;21.052;2023-06-22T11:19:07;100810.50;;;28.96;43.03
65997;BME280;52765;52.258;21.052;2023-06-22T11:21:32;100801.22;;;29.23;42.80
65997;BME280;52765;52.258;21.052;2023-06-22T11:23:58;100806.78;;;29.23;43.45
65997;BME280;52765;52.258;21.052;2023-06-22T11:26:25;100798.13;;;29.14;42.89
65997;BME280;52765;52.258;21.052;2023-06-22T11:28:54;100802.28;;;29.11;43.31
65997;BME280;52765;52.258;21.052;2023-06-22T11:31:19;100814.44;;;29.05;43.39
65997;BME280;52765;52.258;21.052;2023-06-22T11:33:45;100799.28;;;29.18;43.02
65997;BME280;52765;52.258;21.052;2023-06-22T11:36:12;100786.81;;;29.21;43.14
65997;BME280;52765;52.258;21.052;2023-06-22T11:38:38;100787.94;;;29.20;41.85
65997;BME280;52765;52.258;21.052;2023-06-22T11:41:12;100809.63;;;29.33;41.67
65997;BME280;52765;52.258;21.052;2023-06-22T11:43:38;100795.31;;;29.09;41.16
65997;BME280;52765;52.258;21.052;2023-06-22T11:46:04;100791.09;;;28.96;40.64
65997;BME280;52765;52.258;21.052;2023-06-22T11:48:32;100792.41;;;29.36;40.91
65997;BME280;52765;52.258;21.052;2023-06-22T11:50:58;100796.47;;;29.86;41.17
65997;BME280;52765;52.258;21.052;2023-06-22T11:53:25;100792.56;;;29.77;38.92
65997;BME280;52765;52.258;21.052;2023-06-22T11:55:51;100793.31;;;29.57;37.78
65997;BME280;52765;52.258;21.052;2023-06-22T11:58:18;100792.56;;;29.82;38.61
65997;BME280;52765;52.258;21.052;2023-06-22T12:00:43;100797.03;;;29.94;39.22
65997;BME280;52765;52.258;21.052;2023-06-22T12:03:10;100790.06;;;29.81;40.23
65997;BME280;52765;52.258;21.052;2023-06-22T12:05:37;100789.25;;;29.96;40.19
65997;BME280;52765;52.258;21.052;2023-06-22T12:08:03;100803.66;;;29.82;40.54
65997;BME280;52765;52.258;21.052;2023-06-22T12:10:30;100798.97;;;29.98;39.39
65997;BME280;52765;52.258;21.052;2023-06-22T12:12:55;100798.97;;;30.14;37.88
65997;BME280;52765;52.258;21.052;2023-06-22T12:15:23;100797.88;;;30.20;37.63
65997;BME280;52765;52.258;21.052;2023-06-22T12:17:49;100800.09;;;30.33;38.01
65997;BME280;52765;52.258;21.052;2023-06-22T12:20:14;100797.88;;;30.15;38.93
65997;BME280;52765;52.258;21.052;2023-06-22T12:22:41;100791.78;;;30.18;39.54
65997;BME280;52765;52.258;21.052;2023-06-22T12:25:10;100783.16;;;30.35;39.16
65997;BME280;52765;52.258;21.052;2023-06-22T12:27:36;100788.44;;;30.26;38.60
65997;BME280;52765;52.258;21.052;2023-06-22T12:30:02;100787.84;;;30.70;37.95
65997;BME280;52765;52.258;21.052;2023-06-22T12:32:28;100776.94;;;31.05;37.15
65997;BME280;52765;52.258;21.052;2023-06-22T12:34:54;100780.25;;;31.12;37.43
65997;BME280;52765;52.258;21.052;2023-06-22T12:37:20;100778.41;;;30.71;37.42
65997;BME280;52765;52.258;21.052;2023-06-22T12:39:46;100783.34;;;31.05;37.14
65997;BME280;52765;52.258;21.052;2023-06-22T12:42:11;100772.38;;;31.34;35.44